sensor_id;sensor_type;location;lat;lon;timestamp;P1;durP1;ratioP1;P2;durP2;ratioP2
41689;SDS011;27372;42.658;23.256;2023-05-07T00:01:51;11.15;;;6.65;;
41689;SDS011;27372;42.658;23.256;2023-05-07T00:04:17;12.18;;;7.32;;
41689;SDS011;27372;42.658;23.256;2023-05-07T00:06:42;11.25;;;7.55;;
41689;SDS011;27372;42.658;23.256;2023-05-07T00:09:08;12.77;;;7.53;;
41689;SDS011;27372;42.658;23.256;2023-05-07T00:11:36;9.45;;;7.22;;
41689;SDS011;27372;42.658;23.256;2023-05-07T00:14:10;10.80;;;7.20;;
41689;SDS011;27372;42.658;23.256;2023-05-07T00:17:11;10.00;;;7.30;;
41689;SDS011;27372;42.658;23.256;2023-05-07T00:19:36;10.20;;;7.13;;
41689;SDS011;27372;42.658;23.256;2023-05-07T00:22:05;9.60;;;7.53;;
41689;SDS011;27372;42.658;23.256;2023-05-07T00:24:30;14.15;;;7.75;;
41689;SDS011;27372;42.658;23.256;2023-05-07T00:26:56;11.07;;;7.55;;
41689;SDS011;27372;42.658;23.256;2023-05-07T00:29:23;9.05;;;6.93;;
41689;SDS011;27372;42.658;23.256;2023-05-07T00:31:51;12.67;;;7.37;;
41689;SDS011;27372;42.658;23.256;2023-05-07T00:34:26;12.25;;;7.00;;
41689;SDS011;27372;42.658;23.256;2023-05-07T00:36:54;10.95;;;7.20;;
41689;SDS011;27372;42.658;23.256;2023-05-07T00:39:19;9.90;;;7.00;;
41689;SDS011;27372;42.658;23.256;2023-05-07T00:41:45;11.00;;;6.50;;
41689;SDS011;27372;42.658;23.256;2023-05-07T00:44:11;7.85;;;5.50;;
41689;SDS011;27372;42.658;23.256;2023-05-07T00:46:36;8.98;;;5.40;;
41689;SDS011;27372;42.658;23.256;2023-05-07T00:49:02;7.00;;;5.95;;
41689;SDS011;27372;42.658;23.256;2023-05-07T00:51:28;11.85;;;6.82;;
41689;SDS011;27372;42.658;23.256;2023-05-07T00:53:54;11.10;;;6.90;;
41689;SDS011;27372;42.658;23.256;2023-05-07T00:56:20;8.93;;;6.55;;
41689;SDS011;27372;42.658;23.256;2023-05-07T00:58:47;9.98;;;7.00;;
41689;SDS011;27372;42.658;23.256;2023-05-07T01:01:13;10.25;;;7.38;;
41689;SDS011;27372;42.658;23.256;2023-05-07T01:03:40;11.50;;;7.45;;
41689;SDS011;27372;42.658;23.256;2023-05-07T01:06:06;9.20;;;6.95;;
41689;SDS011;27372;42.658;23.256;2023-05-07T01:08:43;12.63;;;6.80;;
41689;SDS011;27372;42.658;23.256;2023-05-07T01:11:20;13.20;;;7.00;;
41689;SDS011;27372;42.658;23.256;2023-05-07T01:13:46;10.73;;;7.28;;
41689;SDS011;27372;42.658;23.256;2023-05-07T01:16:18;8.35;;;6.53;;
41689;SDS011;27372;42.658;23.256;2023-05-07T01:18:43;11.82;;;8.07;;
41689;SDS011;27372;42.658;23.256;2023-05-07T01:21:10;9.27;;;7.47;;
41689;SDS011;27372;42.658;23.256;2023-05-07T01:23:39;11.43;;;7.78;;
41689;SDS011;27372;42.658;23.256;2023-05-07T01:26:09;12.00;;;7.57;;
41689;SDS011;27372;42.658;23.256;2023-05-07T01:28:37;14.23;;;7.68;;
41689;SDS011;27372;42.658;23.256;2023-05-07T01:31:03;13.38;;;7.70;;
41689;SDS011;27372;42.658;23.256;2023-05-07T01:33:33;13.80;;;7.10;;
41689;SDS011;27372;42.658;23.256;2023-05-07T01:36:08;12.95;;;7.72;;
41689;SDS011;27372;42.658;23.256;2023-05-07T01:38:36;10.00;;;7.07;;
41689;SDS011;27372;42.658;23.256;2023-05-07T01:41:06;12.68;;;7.18;;
41689;SDS011;27372;42.658;23.256;2023-05-07T01:43:32;8.85;;;6.70;;
41689;SDS011;27372;42.658;23.256;2023-05-07T01:46:01;9.43;;;6.43;;
41689;SDS011;27372;42.658;23.256;2023-05-07T01:48:30;9.98;;;7.00;;
41689;SDS011;27372;42.658;23.256;2023-05-07T01:50:56;9.13;;;7.05;;
41689;SDS011;27372;42.658;23.256;2023-05-07T01:53:36;7.65;;;6.78;;
41689;SDS011;27372;42.658;23.256;2023-05-07T01:56:06;9.43;;;7.35;;
41689;SDS011;27372;42.658;23.256;2023-05-07T01:58:32;10.35;;;6.93;;
41689;SDS011;27372;42.658;23.256;2023-05-07T02:00:57;13.23;;;7.93;;
41689;SDS011;27372;42.658;23.256;2023-05-07T02:03:23;10.30;;;7.13;;
41689;SDS011;27372;42.658;23.256;2023-05-07T02:05:48;10.23;;;6.60;;
41689;SDS011;27372;42.658;23.256;2023-05-07T02:08:13;10.48;;;6.95;;
41689;SDS011;27372;42.658;23.256;2023-05-07T02:10:39;9.77;;;7.18;;
41689;SDS011;27372;42.658;23.256;2023-05-07T02:13:04;11.63;;;6.97;;
41689;SDS011;27372;42.658;23.256;2023-05-07T02:15:30;11.55;;;6.65;;
41689;SDS011;27372;42.658;23.256;2023-05-07T02:18:02;8.63;;;6.80;;
41689;SDS011;27372;42.658;23.256;2023-05-07T02:20:29;10.10;;;6.88;;
41689;SDS011;27372;42.658;23.256;2023-05-07T02:22:54;9.13;;;7.07;;
41689;SDS011;27372;42.658;23.256;2023-05-07T02:25:20;8.50;;;6.85;;
41689;SDS011;27372;42.658;23.256;2023-05-07T02:27:45;9.82;;;6.40;;
41689;SDS011;27372;42.658;23.256;2023-05-07T02:30:11;9.45;;;6.57;;
41689;SDS011;27372;42.658;23.256;2023-05-07T02:32:36;10.15;;;6.50;;
41689;SDS011;27372;42.658;23.256;2023-05-07T02:35:02;9.63;;;6.28;;
41689;SDS011;27372;42.658;23.256;2023-05-07T02:37:27;9.35;;;6.43;;
41689;SDS011;27372;42.658;23.256;2023-05-07T02:39:52;9.52;;;6.40;;
41689;SDS011;27372;42.658;23.256;2023-05-07T02:42:18;7.97;;;6.53;;
41689;SDS011;27372;42.658;23.256;2023-05-07T02:44:43;8.10;;;6.10;;
41689;SDS011;27372;42.658;23.256;2023-05-07T02:47:09;9.23;;;6.85;;
41689;SDS011;27372;42.658;23.256;2023-05-07T02:49:35;12.27;;;6.70;;
41689;SDS011;27372;42.658;23.256;2023-05-07T02:52:00;12.32;;;6.82;;
41689;SDS011;27372;42.658;23.256;2023-05-07T02:54:26;10.00;;;7.80;;
41689;SDS011;27372;42.658;23.256;2023-05-07T02:56:51;10.05;;;7.32;;
41689;SDS011;27372;42.658;23.256;2023-05-07T02:59:17;10.73;;;7.80;;
41689;SDS011;27372;42.658;23.256;2023-05-07T03:01:42;11.98;;;8.55;;
41689;SDS011;27372;42.658;23.256;2023-05-07T03:04:10;13.10;;;8.15;;
41689;SDS011;27372;42.658;23.256;2023-05-07T03:06:35;41.47;;;26.75;;
41689;SDS011;27372;42.658;23.256;2023-05-07T03:09:01;15.68;;;11.82;;
41689;SDS011;27372;42.658;23.256;2023-05-07T03:11:27;12.35;;;9.02;;
41689;SDS011;27372;42.658;23.256;2023-05-07T03:13:52;13.35;;;9.13;;
41689;SDS011;27372;42.658;23.256;2023-05-07T03:16:18;15.43;;;11.07;;
41689;SDS011;27372;42.658;23.256;2023-05-07T03:18:43;18.55;;;11.02;;
41689;SDS011;27372;42.658;23.256;2023-05-07T03:21:09;13.02;;;9.90;;
41689;SDS011;27372;42.658;23.256;2023-05-07T03:23:34;14.77;;;10.35;;
41689;SDS011;27372;42.658;23.256;2023-05-07T03:26:00;13.60;;;10.07;;
41689;SDS011;27372;42.658;23.256;2023-05-07T03:28:25;12.50;;;9.95;;
41689;SDS011;27372;42.658;23.256;2023-05-07T03:30:56;13.73;;;9.27;;
41689;SDS011;27372;42.658;23.256;2023-05-07T03:33:51;16.58;;;9.68;;
41689;SDS011;27372;42.658;23.256;2023-05-07T03:36:19;13.90;;;9.57;;
41689;SDS011;27372;42.658;23.256;2023-05-07T03:38:44;12.75;;;9.02;;
41689;SDS011;27372;42.658;23.256;2023-05-07T03:41:13;15.70;;;9.60;;
41689;SDS011;27372;42.658;23.256;2023-05-07T03:43:38;13.67;;;9.53;;
41689;SDS011;27372;42.658;23.256;2023-05-07T03:46:04;13.45;;;9.68;;
41689;SDS011;27372;42.658;23.256;2023-05-07T03:48:29;13.10;;;9.43;;
41689;SDS011;27372;42.658;23.256;2023-05-07T03:50:55;12.32;;;9.00;;
41689;SDS011;27372;42.658;23.256;2023-05-07T03:53:22;12.70;;;9.30;;
41689;SDS011;27372;42.658;23.256;2023-05-07T03:55:48;15.32;;;8.63;;
41689;SDS011;27372;42.658;23.256;2023-05-07T03:58:13;12.95;;;9.75;;
41689;SDS011;27372;42.658;23.256;2023-05-07T04:00:39;14.32;;;9.05;;
41689;SDS011;27372;42.658;23.256;2023-05-07T04:03:05;12.77;;;9.35;;
41689;SDS011;27372;42.658;23.256;2023-05-07T04:05:31;14.77;;;9.15;;
41689;SDS011;27372;42.658;23.256;2023-05-07T04:07:57;13.05;;;9.57;;
41689;SDS011;27372;42.658;23.256;2023-05-07T04:10:23;14.82;;;9.15;;
41689;SDS011;27372;42.658;23.256;2023-05-07T04:12:49;14.27;;;8.82;;
41689;SDS011;27372;42.658;23.256;2023-05-07T04:15:14;14.25;;;8.98;;
41689;SDS011;27372;42.658;23.256;2023-05-07T04:17:40;15.13;;;8.85;;
41689;SDS011;27372;42.658;23.256;2023-05-07T04:20:08;12.05;;;8.75;;
41689;SDS011;27372;42.658;23.256;2023-05-07T04:22:34;17.35;;;9.20;;
41689;SDS011;27372;42.658;23.256;2023-05-07T04:24:59;15.35;;;8.95;;
41689;SDS011;27372;42.658;23.256;2023-05-07T04:27:25;9.80;;;8.13;;
41689;SDS011;27372;42.658;23.256;2023-05-07T04:29:51;10.77;;;8.93;;
41689;SDS011;27372;42.658;23.256;2023-05-07T04:32:16;12.60;;;8.60;;
41689;SDS011;27372;42.658;23.256;2023-05-07T04:34:42;10.90;;;8.38;;
41689;SDS011;27372;42.658;23.256;2023-05-07T04:37:08;12.10;;;7.95;;
41689;SDS011;27372;42.658;23.256;2023-05-07T04:39:34;10.70;;;8.00;;
41689;SDS011;27372;42.658;23.256;2023-05-07T04:42:00;11.75;;;8.32;;
41689;SDS011;27372;42.658;23.256;2023-05-07T04:44:25;10.65;;;8.27;;
41689;SDS011;27372;42.658;23.256;2023-05-07T04:46:51;13.00;;;7.90;;
41689;SDS011;27372;42.658;23.256;2023-05-07T04:49:17;12.98;;;8.30;;
41689;SDS011;27372;42.658;23.256;2023-05-07T04:52:28;14.55;;;8.70;;
41689;SDS011;27372;42.658;23.256;2023-05-07T04:54:54;11.55;;;8.75;;
41689;SDS011;27372;42.658;23.256;2023-05-07T04:57:19;13.20;;;8.88;;
41689;SDS011;27372;42.658;23.256;2023-05-07T04:59:45;13.00;;;8.93;;
41689;SDS011;27372;42.658;23.256;2023-05-07T05:02:49;13.02;;;9.25;;
41689;SDS011;27372;42.658;23.256;2023-05-07T05:05:14;12.27;;;9.55;;
41689;SDS011;27372;42.658;23.256;2023-05-07T05:07:39;11.43;;;8.85;;
41689;SDS011;27372;42.658;23.256;2023-05-07T05:10:05;12.95;;;9.15;;
41689;SDS011;27372;42.658;23.256;2023-05-07T05:12:31;13.32;;;9.13;;
41689;SDS011;27372;42.658;23.256;2023-05-07T05:14:56;13.63;;;8.75;;
41689;SDS011;27372;42.658;23.256;2023-05-07T05:17:22;13.65;;;9.00;;
41689;SDS011;27372;42.658;23.256;2023-05-07T05:19:47;13.02;;;8.50;;
41689;SDS011;27372;42.658;23.256;2023-05-07T05:22:15;11.82;;;8.52;;
41689;SDS011;27372;42.658;23.256;2023-05-07T05:24:40;15.23;;;8.93;;
41689;SDS011;27372;42.658;23.256;2023-05-07T05:27:06;13.02;;;8.85;;
41689;SDS011;27372;42.658;23.256;2023-05-07T05:29:31;12.38;;;8.82;;
41689;SDS011;27372;42.658;23.256;2023-05-07T05:31:57;13.23;;;8.65;;
41689;SDS011;27372;42.658;23.256;2023-05-07T05:34:22;14.50;;;9.13;;
41689;SDS011;27372;42.658;23.256;2023-05-07T05:36:47;12.15;;;8.48;;
41689;SDS011;27372;42.658;23.256;2023-05-07T05:39:13;10.80;;;8.65;;
41689;SDS011;27372;42.658;23.256;2023-05-07T05:41:39;11.27;;;8.60;;
41689;SDS011;27372;42.658;23.256;2023-05-07T05:44:04;13.57;;;8.75;;
41689;SDS011;27372;42.658;23.256;2023-05-07T05:46:30;12.25;;;8.50;;
41689;SDS011;27372;42.658;23.256;2023-05-07T05:48:55;15.77;;;9.18;;
41689;SDS011;27372;42.658;23.256;2023-05-07T05:51:21;19.27;;;9.25;;
41689;SDS011;27372;42.658;23.256;2023-05-07T05:53:47;13.43;;;8.98;;
41689;SDS011;27372;42.658;23.256;2023-05-07T05:56:12;11.70;;;8.70;;
41689;SDS011;27372;42.658;23.256;2023-05-07T05:58:38;12.15;;;8.23;;
41689;SDS011;27372;42.658;23.256;2023-05-07T06:01:03;14.48;;;8.55;;
41689;SDS011;27372;42.658;23.256;2023-05-07T06:03:30;13.13;;;8.57;;
41689;SDS011;27372;42.658;23.256;2023-05-07T06:05:55;11.30;;;8.25;;
41689;SDS011;27372;42.658;23.256;2023-05-07T06:08:21;12.85;;;9.20;;
41689;SDS011;27372;42.658;23.256;2023-05-07T06:10:46;13.10;;;8.63;;
41689;SDS011;27372;42.658;23.256;2023-05-07T06:13:12;12.23;;;9.55;;
41689;SDS011;27372;42.658;23.256;2023-05-07T06:15:37;16.42;;;11.25;;
41689;SDS011;27372;42.658;23.256;2023-05-07T06:18:05;9.73;;;8.07;;
41689;SDS011;27372;42.658;23.256;2023-05-07T06:20:31;10.88;;;7.95;;
41689;SDS011;27372;42.658;23.256;2023-05-07T06:22:56;10.30;;;7.60;;
41689;SDS011;27372;42.658;23.256;2023-05-07T06:25:21;12.57;;;8.07;;
41689;SDS011;27372;42.658;23.256;2023-05-07T06:27:47;9.38;;;7.70;;
41689;SDS011;27372;42.658;23.256;2023-05-07T06:30:12;12.25;;;8.88;;
41689;SDS011;27372;42.658;23.256;2023-05-07T06:32:39;11.07;;;8.43;;
41689;SDS011;27372;42.658;23.256;2023-05-07T06:35:05;11.05;;;8.00;;
41689;SDS011;27372;42.658;23.256;2023-05-07T06:37:37;10.63;;;8.13;;
41689;SDS011;27372;42.658;23.256;2023-05-07T06:40:07;10.40;;;8.40;;
41689;SDS011;27372;42.658;23.256;2023-05-07T06:42:32;10.25;;;8.20;;
41689;SDS011;27372;42.658;23.256;2023-05-07T06:44:58;14.45;;;8.32;;
41689;SDS011;27372;42.658;23.256;2023-05-07T06:47:23;12.10;;;7.72;;
41689;SDS011;27372;42.658;23.256;2023-05-07T06:49:49;11.57;;;7.53;;
41689;SDS011;27372;42.658;23.256;2023-05-07T06:52:17;9.87;;;7.43;;
41689;SDS011;27372;42.658;23.256;2023-05-07T06:54:42;11.60;;;7.43;;
41689;SDS011;27372;42.658;23.256;2023-05-07T06:57:07;11.85;;;7.65;;
41689;SDS011;27372;42.658;23.256;2023-05-07T06:59:33;9.75;;;8.65;;
41689;SDS011;27372;42.658;23.256;2023-05-07T07:02:01;11.95;;;7.85;;
41689;SDS011;27372;42.658;23.256;2023-05-07T07:04:27;15.52;;;7.72;;
41689;SDS011;27372;42.658;23.256;2023-05-07T07:06:53;8.45;;;7.15;;
41689;SDS011;27372;42.658;23.256;2023-05-07T07:09:19;11.38;;;7.22;;
41689;SDS011;27372;42.658;23.256;2023-05-07T07:11:44;9.63;;;7.25;;
41689;SDS011;27372;42.658;23.256;2023-05-07T07:14:10;11.52;;;7.05;;
41689;SDS011;27372;42.658;23.256;2023-05-07T07:16:35;9.40;;;7.30;;
41689;SDS011;27372;42.658;23.256;2023-05-07T07:19:00;11.40;;;7.15;;
41689;SDS011;27372;42.658;23.256;2023-05-07T07:21:26;10.73;;;6.65;;
41689;SDS011;27372;42.658;23.256;2023-05-07T07:23:51;10.73;;;6.88;;
41689;SDS011;27372;42.658;23.256;2023-05-07T07:26:17;12.38;;;6.88;;
41689;SDS011;27372;42.658;23.256;2023-05-07T07:28:43;12.05;;;6.93;;
41689;SDS011;27372;42.658;23.256;2023-05-07T07:31:11;10.48;;;6.72;;
41689;SDS011;27372;42.658;23.256;2023-05-07T07:33:37;9.43;;;6.20;;
41689;SDS011;27372;42.658;23.256;2023-05-07T07:36:03;6.90;;;5.97;;
41689;SDS011;27372;42.658;23.256;2023-05-07T07:38:30;11.55;;;6.20;;
41689;SDS011;27372;42.658;23.256;2023-05-07T07:40:55;9.02;;;6.20;;
41689;SDS011;27372;42.658;23.256;2023-05-07T07:43:21;10.07;;;6.25;;
41689;SDS011;27372;42.658;23.256;2023-05-07T07:45:46;10.50;;;6.68;;
41689;SDS011;27372;42.658;23.256;2023-05-07T07:48:12;9.85;;;6.57;;
41689;SDS011;27372;42.658;23.256;2023-05-07T07:50:37;10.85;;;6.32;;
41689;SDS011;27372;42.658;23.256;2023-05-07T07:53:03;9.13;;;5.75;;
41689;SDS011;27372;42.658;23.256;2023-05-07T07:55:28;9.60;;;5.78;;
41689;SDS011;27372;42.658;23.256;2023-05-07T07:57:54;8.13;;;5.85;;
41689;SDS011;27372;42.658;23.256;2023-05-07T08:00:19;10.82;;;5.95;;
41689;SDS011;27372;42.658;23.256;2023-05-07T08:02:45;8.40;;;5.65;;
41689;SDS011;27372;42.658;23.256;2023-05-07T08:05:10;9.05;;;6.05;;
41689;SDS011;27372;42.658;23.256;2023-05-07T08:07:36;9.70;;;6.15;;
41689;SDS011;27372;42.658;23.256;2023-05-07T08:10:01;14.30;;;6.20;;
41689;SDS011;27372;42.658;23.256;2023-05-07T08:12:27;9.15;;;5.57;;
41689;SDS011;27372;42.658;23.256;2023-05-07T08:14:52;11.43;;;5.88;;
41689;SDS011;27372;42.658;23.256;2023-05-07T08:17:18;10.80;;;6.43;;
41689;SDS011;27372;42.658;23.256;2023-05-07T08:19:43;7.63;;;5.68;;
41689;SDS011;27372;42.658;23.256;2023-05-07T08:22:09;12.38;;;7.28;;
41689;SDS011;27372;42.658;23.256;2023-05-07T08:24:35;10.52;;;5.60;;
41689;SDS011;27372;42.658;23.256;2023-05-07T08:27:01;8.40;;;6.18;;
41689;SDS011;27372;42.658;23.256;2023-05-07T08:29:27;9.00;;;5.10;;
41689;SDS011;27372;42.658;23.256;2023-05-07T08:31:52;9.15;;;5.70;;
41689;SDS011;27372;42.658;23.256;2023-05-07T08:34:18;8.95;;;5.55;;
41689;SDS011;27372;42.658;23.256;2023-05-07T08:36:43;9.20;;;5.10;;
41689;SDS011;27372;42.658;23.256;2023-05-07T08:39:09;8.82;;;4.60;;
41689;SDS011;27372;42.658;23.256;2023-05-07T08:41:34;8.30;;;5.57;;
41689;SDS011;27372;42.658;23.256;2023-05-07T08:43:59;7.65;;;5.70;;
41689;SDS011;27372;42.658;23.256;2023-05-07T08:46:29;9.65;;;6.13;;
41689;SDS011;27372;42.658;23.256;2023-05-07T08:48:56;10.57;;;6.40;;
41689;SDS011;27372;42.658;23.256;2023-05-07T08:51:22;10.88;;;6.00;;
41689;SDS011;27372;42.658;23.256;2023-05-07T08:53:48;8.15;;;5.20;;
41689;SDS011;27372;42.658;23.256;2023-05-07T08:56:15;10.18;;;5.32;;
41689;SDS011;27372;42.658;23.256;2023-05-07T08:58:42;11.27;;;5.63;;
41689;SDS011;27372;42.658;23.256;2023-05-07T09:01:15;7.97;;;5.90;;
41689;SDS011;27372;42.658;23.256;2023-05-07T09:03:42;7.97;;;5.53;;
41689;SDS011;27372;42.658;23.256;2023-05-07T09:06:10;7.72;;;4.82;;
41689;SDS011;27372;42.658;23.256;2023-05-07T09:08:36;8.40;;;5.28;;
41689;SDS011;27372;42.658;23.256;2023-05-07T09:11:02;9.18;;;5.47;;
41689;SDS011;27372;42.658;23.256;2023-05-07T09:13:28;11.40;;;4.90;;
41689;SDS011;27372;42.658;23.256;2023-05-07T09:15:54;5.97;;;5.10;;
41689;SDS011;27372;42.658;23.256;2023-05-07T09:18:20;11.30;;;5.05;;
41689;SDS011;27372;42.658;23.256;2023-05-07T09:20:48;9.68;;;4.93;;
41689;SDS011;27372;42.658;23.256;2023-05-07T09:23:20;7.32;;;4.90;;
41689;SDS011;27372;42.658;23.256;2023-05-07T09:26:00;5.93;;;4.38;;
41689;SDS011;27372;42.658;23.256;2023-05-07T09:28:28;9.85;;;4.10;;
41689;SDS011;27372;42.658;23.256;2023-05-07T09:30:53;5.72;;;3.20;;
41689;SDS011;27372;42.658;23.256;2023-05-07T09:33:26;4.55;;;3.90;;
41689;SDS011;27372;42.658;23.256;2023-05-07T09:35:55;4.97;;;3.90;;
41689;SDS011;27372;42.658;23.256;2023-05-07T09:38:20;4.38;;;3.78;;
41689;SDS011;27372;42.658;23.256;2023-05-07T09:40:46;7.28;;;3.78;;
41689;SDS011;27372;42.658;23.256;2023-05-07T09:43:26;8.73;;;3.38;;
41689;SDS011;27372;42.658;23.256;2023-05-07T09:45:54;6.53;;;3.90;;
41689;SDS011;27372;42.658;23.256;2023-05-07T09:48:20;5.75;;;4.25;;
41689;SDS011;27372;42.658;23.256;2023-05-07T09:50:49;6.90;;;4.50;;
41689;SDS011;27372;42.658;23.256;2023-05-07T09:53:21;7.32;;;4.20;;
41689;SDS011;27372;42.658;23.256;2023-05-07T09:55:47;6.22;;;3.55;;
41689;SDS011;27372;42.658;23.256;2023-05-07T09:58:13;9.77;;;3.88;;
41689;SDS011;27372;42.658;23.256;2023-05-07T10:00:42;4.68;;;3.60;;
41689;SDS011;27372;42.658;23.256;2023-05-07T10:03:07;5.28;;;3.60;;
41689;SDS011;27372;42.658;23.256;2023-05-07T10:05:34;4.88;;;3.55;;
41689;SDS011;27372;42.658;23.256;2023-05-07T10:08:01;7.43;;;3.75;;
41689;SDS011;27372;42.658;23.256;2023-05-07T10:10:27;4.93;;;3.80;;
41689;SDS011;27372;42.658;23.256;2023-05-07T10:12:53;5.03;;;3.60;;
41689;SDS011;27372;42.658;23.256;2023-05-07T10:15:19;4.72;;;3.70;;
41689;SDS011;27372;42.658;23.256;2023-05-07T10:17:46;4.00;;;3.60;;
41689;SDS011;27372;42.658;23.256;2023-05-07T10:20:19;8.50;;;3.90;;
41689;SDS011;27372;42.658;23.256;2023-05-07T10:22:45;7.32;;;4.03;;
41689;SDS011;27372;42.658;23.256;2023-05-07T10:28:13;8.35;;;4.00;;
41689;SDS011;27372;42.658;23.256;2023-05-07T10:33:26;4.82;;;3.00;;
41689;SDS011;27372;42.658;23.256;2023-05-07T10:36:00;6.53;;;3.25;;
41689;SDS011;27372;42.658;23.256;2023-05-07T10:38:32;3.92;;;3.03;;
41689;SDS011;27372;42.658;23.256;2023-05-07T10:41:01;5.07;;;3.33;;
41689;SDS011;27372;42.658;23.256;2023-05-07T10:43:44;5.43;;;3.28;;
41689;SDS011;27372;42.658;23.256;2023-05-07T10:51:33;6.05;;;3.53;;
41689;SDS011;27372;42.658;23.256;2023-05-07T10:56:34;5.03;;;3.25;;
41689;SDS011;27372;42.658;23.256;2023-05-07T11:01:49;6.53;;;3.40;;
41689;SDS011;27372;42.658;23.256;2023-05-07T11:04:29;6.57;;;3.35;;
41689;SDS011;27372;42.658;23.256;2023-05-07T11:15:09;3.67;;;3.10;;
41689;SDS011;27372;42.658;23.256;2023-05-07T11:17:51;4.75;;;2.83;;
41689;SDS011;27372;42.658;23.256;2023-05-07T11:20:18;5.25;;;3.22;;
41689;SDS011;27372;42.658;23.256;2023-05-07T11:22:44;5.78;;;2.90;;
41689;SDS011;27372;42.658;23.256;2023-05-07T11:25:09;5.82;;;3.30;;
41689;SDS011;27372;42.658;23.256;2023-05-07T11:27:35;7.07;;;3.40;;
41689;SDS011;27372;42.658;23.256;2023-05-07T11:30:01;4.38;;;3.10;;
41689;SDS011;27372;42.658;23.256;2023-05-07T11:32:27;5.63;;;3.03;;
41689;SDS011;27372;42.658;23.256;2023-05-07T11:34:54;6.32;;;3.30;;
41689;SDS011;27372;42.658;23.256;2023-05-07T11:37:21;5.65;;;3.22;;
41689;SDS011;27372;42.658;23.256;2023-05-07T11:39:48;4.63;;;3.17;;
41689;SDS011;27372;42.658;23.256;2023-05-07T11:42:30;4.80;;;3.00;;
41689;SDS011;27372;42.658;23.256;2023-05-07T11:45:02;5.82;;;3.35;;
41689;SDS011;27372;42.658;23.256;2023-05-07T11:47:32;4.35;;;3.05;;
41689;SDS011;27372;42.658;23.256;2023-05-07T11:50:02;5.47;;;3.22;;
41689;SDS011;27372;42.658;23.256;2023-05-07T11:52:32;7.28;;;3.38;;
41689;SDS011;27372;42.658;23.256;2023-05-07T11:54:59;7.53;;;3.17;;
41689;SDS011;27372;42.658;23.256;2023-05-07T11:57:26;4.97;;;2.90;;
41689;SDS011;27372;42.658;23.256;2023-05-07T11:59:53;5.15;;;3.00;;
41689;SDS011;27372;42.658;23.256;2023-05-07T12:02:19;4.43;;;3.20;;
41689;SDS011;27372;42.658;23.256;2023-05-07T12:04:44;6.35;;;2.90;;
41689;SDS011;27372;42.658;23.256;2023-05-07T12:07:16;5.68;;;3.10;;
41689;SDS011;27372;42.658;23.256;2023-05-07T12:09:43;4.00;;;3.22;;
41689;SDS011;27372;42.658;23.256;2023-05-07T12:12:09;3.63;;;2.88;;
41689;SDS011;27372;42.658;23.256;2023-05-07T12:14:39;3.80;;;2.78;;
41689;SDS011;27372;42.658;23.256;2023-05-07T12:17:05;5.45;;;2.90;;
41689;SDS011;27372;42.658;23.256;2023-05-07T12:19:32;4.78;;;2.85;;
41689;SDS011;27372;42.658;23.256;2023-05-07T12:21:59;7.30;;;2.72;;
41689;SDS011;27372;42.658;23.256;2023-05-07T12:24:25;6.97;;;2.80;;
41689;SDS011;27372;42.658;23.256;2023-05-07T12:26:50;3.70;;;2.80;;
41689;SDS011;27372;42.658;23.256;2023-05-07T12:29:15;4.78;;;2.90;;
41689;SDS011;27372;42.658;23.256;2023-05-07T12:31:41;6.32;;;2.60;;
41689;SDS011;27372;42.658;23.256;2023-05-07T12:34:07;3.75;;;2.70;;
41689;SDS011;27372;42.658;23.256;2023-05-07T12:36:36;4.38;;;2.63;;
41689;SDS011;27372;42.658;23.256;2023-05-07T12:39:04;3.70;;;2.63;;
41689;SDS011;27372;42.658;23.256;2023-05-07T12:41:30;3.60;;;2.70;;
41689;SDS011;27372;42.658;23.256;2023-05-07T12:43:56;2.60;;;2.40;;
41689;SDS011;27372;42.658;23.256;2023-05-07T12:46:22;4.68;;;2.75;;
41689;SDS011;27372;42.658;23.256;2023-05-07T12:48:48;3.05;;;2.63;;
41689;SDS011;27372;42.658;23.256;2023-05-07T12:51:13;2.92;;;2.53;;
41689;SDS011;27372;42.658;23.256;2023-05-07T12:53:41;3.92;;;2.33;;
41689;SDS011;27372;42.658;23.256;2023-05-07T12:56:07;3.33;;;2.30;;
41689;SDS011;27372;42.658;23.256;2023-05-07T12:58:33;4.80;;;2.78;;
41689;SDS011;27372;42.658;23.256;2023-05-07T13:01:05;9.48;;;3.05;;
41689;SDS011;27372;42.658;23.256;2023-05-07T13:03:32;4.65;;;2.55;;
41689;SDS011;27372;42.658;23.256;2023-05-07T13:06:03;3.90;;;2.60;;
41689;SDS011;27372;42.658;23.256;2023-05-07T13:08:38;8.95;;;2.70;;
41689;SDS011;27372;42.658;23.256;2023-05-07T13:11:07;3.67;;;2.60;;
41689;SDS011;27372;42.658;23.256;2023-05-07T13:13:36;5.05;;;2.70;;
41689;SDS011;27372;42.658;23.256;2023-05-07T13:16:03;5.95;;;2.42;;
41689;SDS011;27372;42.658;23.256;2023-05-07T13:18:30;5.10;;;2.63;;
41689;SDS011;27372;42.658;23.256;2023-05-07T13:20:56;2.92;;;2.60;;
41689;SDS011;27372;42.658;23.256;2023-05-07T13:23:22;3.20;;;2.50;;
41689;SDS011;27372;42.658;23.256;2023-05-07T13:25:47;3.70;;;2.58;;
41689;SDS011;27372;42.658;23.256;2023-05-07T13:28:14;3.72;;;2.53;;
41689;SDS011;27372;42.658;23.256;2023-05-07T13:30:39;3.97;;;2.50;;
41689;SDS011;27372;42.658;23.256;2023-05-07T13:33:06;3.80;;;2.28;;
41689;SDS011;27372;42.658;23.256;2023-05-07T13:35:31;17.40;;;2.90;;
41689;SDS011;27372;42.658;23.256;2023-05-07T13:37:57;5.65;;;2.53;;
41689;SDS011;27372;42.658;23.256;2023-05-07T13:40:22;7.63;;;2.70;;
41689;SDS011;27372;42.658;23.256;2023-05-07T13:42:48;3.60;;;2.28;;
41689;SDS011;27372;42.658;23.256;2023-05-07T13:45:14;3.20;;;2.30;;
41689;SDS011;27372;42.658;23.256;2023-05-07T13:47:40;4.60;;;2.42;;
41689;SDS011;27372;42.658;23.256;2023-05-07T13:50:07;2.60;;;2.30;;
41689;SDS011;27372;42.658;23.256;2023-05-07T13:52:33;7.40;;;2.70;;
41689;SDS011;27372;42.658;23.256;2023-05-07T13:54:59;3.45;;;2.70;;
41689;SDS011;27372;42.658;23.256;2023-05-07T13:57:24;4.35;;;2.55;;
41689;SDS011;27372;42.658;23.256;2023-05-07T13:59:50;6.75;;;2.60;;
41689;SDS011;27372;42.658;23.256;2023-05-07T14:02:15;3.67;;;2.50;;
41689;SDS011;27372;42.658;23.256;2023-05-07T14:04:41;4.40;;;2.45;;
41689;SDS011;27372;42.658;23.256;2023-05-07T14:07:24;3.75;;;2.20;;
41689;SDS011;27372;42.658;23.256;2023-05-07T14:09:53;4.13;;;2.45;;
41689;SDS011;27372;42.658;23.256;2023-05-07T14:12:25;3.42;;;2.30;;
41689;SDS011;27372;42.658;23.256;2023-05-07T14:14:59;2.50;;;2.30;;
41689;SDS011;27372;42.658;23.256;2023-05-07T14:17:36;2.55;;;2.20;;
41689;SDS011;27372;42.658;23.256;2023-05-07T14:20:14;4.00;;;2.50;;
41689;SDS011;27372;42.658;23.256;2023-05-07T14:22:39;4.85;;;2.47;;
41689;SDS011;27372;42.658;23.256;2023-05-07T14:25:05;2.88;;;2.45;;
41689;SDS011;27372;42.658;23.256;2023-05-07T14:27:31;4.88;;;2.70;;
41689;SDS011;27372;42.658;23.256;2023-05-07T14:29:56;3.50;;;2.72;;
41689;SDS011;27372;42.658;23.256;2023-05-07T14:32:21;4.78;;;2.70;;
41689;SDS011;27372;42.658;23.256;2023-05-07T14:34:47;4.25;;;2.50;;
41689;SDS011;27372;42.658;23.256;2023-05-07T14:37:12;5.03;;;3.05;;
41689;SDS011;27372;42.658;23.256;2023-05-07T14:39:38;2.60;;;2.33;;
41689;SDS011;27372;42.658;23.256;2023-05-07T14:42:04;4.25;;;2.75;;
41689;SDS011;27372;42.658;23.256;2023-05-07T14:44:29;12.27;;;2.67;;
41689;SDS011;27372;42.658;23.256;2023-05-07T14:46:56;3.42;;;2.38;;
41689;SDS011;27372;42.658;23.256;2023-05-07T14:49:21;3.03;;;2.70;;
41689;SDS011;27372;42.658;23.256;2023-05-07T14:51:47;2.55;;;2.35;;
41689;SDS011;27372;42.658;23.256;2023-05-07T14:54:12;2.67;;;2.47;;